Time;durP1;ratioP1;P1;durP2;ratioP2;P2;SDS_P1;SDS_P2;PMS_P1;PMS_P2;Temp;Humidity;BMP_temperature;BMP_pressure;BME280_temperature;BME280_humidity;BME280_pressure;Samples;Min_cycle;Max_cycle;Signal;HPM_P1;HPM_P2
2022/08/16 00:02:00;;;;;;;10.60;4.45;;;;;;;24.17;91.75;99805.38;4972307;28;20166;-69
2022/08/16 00:04:26;;;;;;;8.45;4.80;;;;;;;24.33;90.53;99807.72;4972139;28;20455;-69
2022/08/16 00:06:51;;;;;;;8.82;4.65;;;;;;;24.28;90.25;99811.13;4973212;28;20399;-69
2022/08/16 00:09:17;;;;;;;7.43;4.20;;;;;;;24.34;90.34;99798.25;4986481;28;20030;-69
2022/08/16 00:11:44;;;;;;;8.05;4.47;;;;;;;24.40;91.95;99804.63;4972222;28;20042;-69
2022/08/16 00:14:13;;;;;;;11.27;4.60;;;;;;;24.36;91.79;99800.53;4963761;28;20472;-69
2022/08/16 00:16:39;;;;;;;8.65;4.45;;;;;;;24.36;90.98;99795.78;4959342;28;20062;-69
2022/08/16 00:19:05;;;;;;;8.05;4.60;;;;;;;24.36;91.79;99795.78;4970898;28;20070;-69
2022/08/16 00:21:31;;;;;;;9.45;5.05;;;;;;;24.25;91.77;99800.28;4967060;28;20046;-69
2022/08/16 00:23:57;;;;;;;7.70;4.15;;;;;;;24.27;92.55;99804.09;4965314;28;20039;-69
2022/08/16 00:26:24;;;;;;;6.88;4.18;;;;;;;24.26;92.98;99805.31;4969477;28;20491;-69
2022/08/16 00:28:49;;;;;;;10.38;4.85;;;;;;;24.30;93.40;99808.66;4971107;28;20050;-69
2022/08/16 00:31:15;;;;;;;13.00;5.25;;;;;;;24.48;92.83;99814.06;4968760;28;20081;-69
2022/08/16 00:33:40;;;;;;;9.98;5.25;;;;;;;24.43;92.81;99811.19;4987293;28;20043;-69
2022/08/16 00:36:06;;;;;;;7.70;4.43;;;;;;;24.42;92.29;99815.16;4972021;28;20030;-69
2022/08/16 00:38:32;;;;;;;11.05;4.78;;;;;;;24.40;91.85;99814.88;4966491;28;20031;-69
2022/08/16 00:40:58;;;;;;;7.70;4.78;;;;;;;24.42;92.25;99815.16;4952998;28;20054;-69
2022/08/16 00:43:28;;;;;;;8.75;4.30;;;;;;;24.53;91.75;99824.41;4971642;28;20027;-69
2022/08/16 00:46:28;;;;;;;7.78;4.57;;;;;;;24.45;91.72;99825.25;4971849;28;20035;-69
2022/08/16 00:48:58;;;;;;;7.95;4.53;;;;;;;24.41;92.16;99835.69;4962406;28;20046;-69
2022/08/16 00:51:25;;;;;;;7.85;4.35;;;;;;;24.39;91.66;99836.13;4956019;28;20159;-69
2022/08/16 00:53:52;;;;;;;7.93;4.53;;;;;;;24.28;92.48;99837.88;4971063;28;20030;-69
2022/08/16 00:56:22;;;;;;;6.88;4.35;;;;;;;24.17;92.94;99835.66;4969515;28;20415;-69
2022/08/16 00:58:48;;;;;;;6.72;4.03;;;;;;;24.25;92.92;99849.84;4969890;28;20126;-69
2022/08/16 01:01:16;;;;;;;7.45;3.97;;;;;;;24.17;92.67;99843.94;4965174;28;20073;-69
2022/08/16 01:03:45;;;;;;;6.68;4.32;;;;;;;24.14;92.67;99836.59;4986208;28;20082;-69
2022/08/16 01:06:11;;;;;;;7.88;4.60;;;;;;;24.11;93.33;99843.03;4965773;28;20109;-69
2022/08/16 01:08:39;;;;;;;6.15;4.38;;;;;;;24.23;92.76;99842.06;4971236;28;20043;-69
2022/08/16 01:11:06;;;;;;;8.05;4.80;;;;;;;24.29;92.60;99844.94;4969367;28;20032;-69
2022/08/16 01:13:36;;;;;;;7.35;3.88;;;;;;;24.39;92.34;99843.66;4970636;28;20027;-69
2022/08/16 01:16:05;;;;;;;7.57;4.32;;;;;;;24.34;92.34;99839.53;4961914;28;20506;-69
2022/08/16 01:18:35;;;;;;;8.23;4.40;;;;;;;24.32;92.06;99841.22;4970084;28;20050;-69
2022/08/16 01:21:38;;;;;;;6.20;4.07;;;;;;;24.40;91.60;99848.69;4970280;28;20043;-69
2022/08/16 01:24:13;;;;;;;12.10;4.72;;;;;;;24.20;90.99;99848.47;4963062;28;20488;-69
2022/08/16 01:26:39;;;;;;;12.20;4.93;;;;;;;24.25;91.11;99853.38;4941231;28;20035;-69
2022/08/16 01:29:12;;;;;;;8.23;4.75;;;;;;;24.20;92.07;99853.25;4951954;28;20042;-69
2022/08/16 01:31:39;;;;;;;8.02;4.55;;;;;;;24.24;92.40;99851.81;4970187;28;20034;-69
2022/08/16 01:34:04;;;;;;;7.82;4.40;;;;;;;24.25;92.23;99852.59;4971252;28;20030;-69
2022/08/16 01:36:31;;;;;;;9.15;5.05;;;;;;;23.96;92.92;99853.19;4967535;28;20137;-69
2022/08/16 01:38:57;;;;;;;8.57;5.05;;;;;;;23.95;93.43;99838.66;4969454;28;20047;-69
2022/08/16 01:41:29;;;;;;;7.32;4.55;;;;;;;24.00;93.31;99840.75;4969514;28;20041;-69
2022/08/16 01:43:56;;;;;;;8.17;4.43;;;;;;;24.09;93.55;99845.50;4968605;28;20164;-69
2022/08/16 01:46:28;;;;;;;7.97;4.75;;;;;;;24.17;92.65;99852.19;4979434;28;20298;-69
2022/08/16 01:49:00;;;;;;;10.52;4.93;;;;;;;24.07;92.42;99845.19;4980761;28;20037;-69
2022/08/16 01:51:27;;;;;;;8.07;4.72;;;;;;;23.91;92.81;99845.53;4968933;28;20023;-69
2022/08/16 01:53:53;;;;;;;9.20;5.03;;;;;;;23.85;93.32;99845.41;4969401;28;20694;-69
2022/08/16 01:56:27;;;;;;;9.68;4.88;;;;;;;23.60;94.81;99845.81;4970086;28;20093;-68
2022/08/16 01:58:57;;;;;;;12.75;5.18;;;;;;;23.58;95.43;99847.47;4961175;28;20035;-69
2022/08/16 02:01:24;;;;;;;12.32;4.97;;;;;;;23.66;95.38;99849.47;4969331;28;20031;-69
2022/08/16 02:03:50;;;;;;;12.98;5.53;;;;;;;23.74;95.00;99845.16;4985971;28;20089;-69
2022/08/16 02:06:16;;;;;;;9.27;5.05;;;;;;;23.66;95.19;99849.47;4966303;28;20443;-69
2022/08/16 02:08:41;;;;;;;7.70;4.47;;;;;;;23.71;95.71;99851.56;4963720;28;20037;-69
2022/08/16 02:11:07;;;;;;;9.25;5.05;;;;;;;23.83;95.08;99838.84;4988982;28;20030;-69
2022/08/16 02:13:39;;;;;;;7.45;4.90;;;;;;;23.82;94.31;99856.59;4977880;28;20043;-69
2022/08/16 02:16:06;;;;;;;10.48;4.78;;;;;;;23.85;94.72;99853.66;4965828;28;20178;-69
2022/08/16 02:18:33;;;;;;;8.65;4.55;;;;;;;23.92;94.56;99850.59;4971844;28;20034;-69
2022/08/16 02:20:58;;;;;;;8.57;4.63;;;;;;;23.92;94.59;99858.84;4955292;28;20064;-69
2022/08/16 02:23:24;;;;;;;9.10;5.00;;;;;;;23.91;94.22;99862.81;4974111;28;20045;-69
2022/08/16 02:25:49;;;;;;;8.07;4.78;;;;;;;23.93;94.01;99857.59;4974136;28;20098;-69
2022/08/16 02:28:16;;;;;;;9.65;5.00;;;;;;;23.83;94.60;99847.88;4972767;28;20031;-69
2022/08/16 02:30:42;;;;;;;8.63;5.22;;;;;;;23.83;94.46;99858.88;4967055;28;20038;-69
2022/08/16 02:33:08;;;;;;;10.10;5.18;;;;;;;23.93;94.21;99854.09;4956150;28;20818;-69
2022/08/16 02:35:34;;;;;;;8.48;4.90;;;;;;;23.94;94.35;99861.13;4971866;28;20525;-69
2022/08/16 02:38:00;;;;;;;10.02;5.63;;;;;;;24.03;94.46;99861.13;4953016;28;20038;-69
2022/08/16 02:40:26;;;;;;;8.60;5.05;;;;;;;23.96;94.20;99864.19;4987857;28;20026;-69
2022/08/16 02:42:53;;;;;;;11.65;5.55;;;;;;;24.06;93.98;99851.94;4973837;28;20078;-69
2022/08/16 02:45:23;;;;;;;8.43;5.10;;;;;;;23.98;94.18;99850.72;4973149;28;20550;-69
2022/08/16 02:47:49;;;;;;;8.88;4.90;;;;;;;24.06;93.76;99849.19;4972152;28;20085;-69
2022/08/16 02:50:15;;;;;;;8.90;4.97;;;;;;;24.01;94.28;99853.31;4972924;28;20027;-67
2022/08/16 02:52:42;;;;;;;10.95;5.78;;;;;;;24.06;94.25;99858.19;4972698;28;20491;-67
2022/08/16 02:55:09;;;;;;;9.07;5.10;;;;;;;23.97;93.97;99854.69;4977331;28;20645;-67
2022/08/16 02:57:34;;;;;;;10.05;5.30;;;;;;;23.88;94.72;99851.97;4969101;28;20039;-67
2022/08/16 03:00:06;;;;;;;11.32;5.03;;;;;;;23.81;94.92;99849.56;4970145;28;20374;-67
2022/08/16 03:02:31;;;;;;;8.77;5.22;;;;;;;23.74;95.06;99850.66;4972944;28;20105;-67
2022/08/16 03:04:58;;;;;;;9.50;4.95;;;;;;;23.77;95.42;99851.72;4972519;28;20483;-68
2022/08/16 03:07:23;;;;;;;10.98;5.68;;;;;;;23.80;95.17;99859.81;4969561;28;20039;-67
2022/08/16 03:09:49;;;;;;;10.85;5.40;;;;;;;23.81;94.88;99852.31;4969450;28;20085;-67
2022/08/16 03:12:19;;;;;;;9.50;5.13;;;;;;;23.71;95.04;99850.81;4979695;28;20027;-67
2022/08/16 03:14:46;;;;;;;8.65;5.38;;;;;;;23.84;94.49;99854.13;4988865;28;20097;-67
2022/08/16 03:17:13;;;;;;;12.55;6.25;;;;;;;23.95;93.99;99849.66;4971743;28;20093;-67
2022/08/16 03:19:39;;;;;;;12.55;6.40;;;;;;;23.64;95.15;99840.13;4970829;28;20034;-66
2022/08/16 03:22:04;;;;;;;8.63;5.18;;;;;;;23.58;96.08;99844.72;4983436;28;20522;-67
2022/08/16 03:24:30;;;;;;;10.45;5.38;;;;;;;23.61;95.84;99852.06;4988602;28;20765;-67
2022/08/16 03:26:59;;;;;;;9.10;5.38;;;;;;;23.47;96.62;99852.72;4975684;28;20080;-67
2022/08/16 03:29:31;;;;;;;11.30;5.65;;;;;;;23.52;96.36;99854.88;4979672;28;20043;-67
2022/08/16 03:31:59;;;;;;;9.10;5.78;;;;;;;23.59;95.92;99854.53;4971244;28;20153;-67
2022/08/16 03:34:27;;;;;;;11.93;6.50;;;;;;;23.58;95.77;99859.25;4972468;28;20023;-68
2022/08/16 03:36:54;;;;;;;11.57;5.82;;;;;;;23.50;96.40;99852.56;4968981;28;20031;-68
2022/08/16 03:39:19;;;;;;;12.60;5.72;;;;;;;23.54;96.04;99841.41;4952452;29;20514;-68
2022/08/16 03:41:45;;;;;;;11.77;5.85;;;;;;;23.65;95.43;99839.69;4957343;28;20039;-68
2022/08/16 03:44:10;;;;;;;12.07;5.90;;;;;;;23.64;95.08;99840.91;4973564;28;20517;-68
2022/08/16 03:46:36;;;;;;;15.25;6.03;;;;;;;23.67;95.08;99845.50;4987704;28;20499;-68
2022/08/16 03:49:03;;;;;;;11.65;5.90;;;;;;;23.46;96.07;99845.72;4971476;28;20027;-68
2022/08/16 03:51:29;;;;;;;11.02;6.28;;;;;;;23.55;95.96;99851.19;4969094;28;20035;-69
2022/08/16 03:54:01;;;;;;;11.43;6.32;;;;;;;23.55;95.49;99849.19;4972562;28;20038;-68
2022/08/16 03:56:27;;;;;;;15.43;6.40;;;;;;;23.43;96.45;99849.38;4971831;28;20070;-68
2022/08/16 03:58:55;;;;;;;12.68;6.57;;;;;;;23.36;97.17;99857.94;4976764;28;20031;-69
2022/08/16 04:01:23;;;;;;;12.38;5.55;;;;;;;23.44;96.96;99853.66;4969986;28;20057;-68
2022/08/16 04:03:50;;;;;;;11.27;5.75;;;;;;;23.43;96.69;99860.38;4971342;28;20043;-69
2022/08/16 04:06:16;;;;;;;10.93;5.72;;;;;;;23.56;96.55;99860.94;4970655;28;20055;-69
2022/08/16 04:08:42;;;;;;;12.95;5.88;;;;;;;23.59;96.27;99857.28;4980974;28;20070;-68
2022/08/16 04:11:07;;;;;;;12.10;5.75;;;;;;;23.59;95.52;99866.28;4951011;28;20031;-68
2022/08/16 04:13:34;;;;;;;9.88;5.82;;;;;;;23.52;95.79;99869.34;5007127;23;20031;-70
2022/08/16 04:16:01;;;;;;;9.00;5.63;;;;;;;23.54;95.97;99866.16;4983816;28;20516;-69
2022/08/16 04:18:28;;;;;;;11.90;6.15;;;;;;;23.53;96.20;99872.88;5011459;28;20041;-69
2022/08/16 04:20:55;;;;;;;14.70;6.38;;;;;;;23.40;96.53;99875.81;4994271;28;20030;-68
2022/08/16 04:23:24;;;;;;;12.15;6.07;;;;;;;23.42;96.65;99872.59;5007131;28;20383;-68
2022/08/16 04:25:50;;;;;;;11.35;6.10;;;;;;;23.51;96.57;99878.84;5007389;28;20038;-67
2022/08/16 04:28:16;;;;;;;12.05;5.90;;;;;;;23.54;96.35;99879.91;5006409;28;20120;-68
2022/08/16 04:30:42;;;;;;;13.95;6.18;;;;;;;23.48;95.94;99888.00;5007570;28;20030;-68
2022/08/16 04:33:08;;;;;;;13.75;5.95;;;;;;;23.46;96.24;99884.94;5003405;28;20030;-67
2022/08/16 04:35:36;;;;;;;12.35;6.30;;;;;;;23.42;96.92;99889.88;4989989;28;20407;-69
2022/08/16 04:38:04;;;;;;;13.50;6.40;;;;;;;23.32;97.04;99882.84;5004809;28;20068;-68
2022/08/16 04:40:35;;;;;;;11.38;5.95;;;;;;;23.42;96.95;99889.09;4989730;28;20035;-68
2022/08/16 04:43:02;;;;;;;11.25;6.18;;;;;;;23.30;97.68;99882.50;4976962;28;20096;-69
2022/08/16 04:45:29;;;;;;;11.88;5.97;;;;;;;23.25;97.38;99878.38;5005688;28;20030;-69
2022/08/16 04:47:55;;;;;;;13.93;6.90;;;;;;;22.91;98.85;99880.69;5006318;28;20022;-67
2022/08/16 04:50:28;;;;;;;13.27;6.60;;;;;;;22.93;98.97;99883.75;5006283;28;20037;-67
2022/08/16 04:53:01;;;;;;;15.48;6.95;;;;;;;22.99;99.13;99876.41;5010028;28;20065;-68
2022/08/16 04:55:51;;;;;;;11.40;6.45;;;;;;;23.12;99.12;99882.50;5007133;28;20042;-68
2022/08/16 04:58:17;;;;;;;12.93;6.53;;;;;;;23.30;98.37;99883.28;4908330;29;20050;-68
2022/08/16 05:00:43;;;;;;;16.38;6.95;;;;;;;23.40;97.79;99891.53;4910884;29;20079;-68
2022/08/16 05:03:16;;;;;;;12.20;6.72;;;;;;;23.42;97.19;99897.34;4930231;29;20048;-69
2022/08/16 05:05:45;;;;;;;14.63;6.47;;;;;;;23.48;96.64;99893.50;4895421;29;20032;-67
2022/08/16 05:08:12;;;;;;;11.57;6.18;;;;;;;23.52;96.59;99898.84;4896026;29;20039;-68
2022/08/16 05:10:42;;;;;;;16.80;7.95;;;;;;;23.62;95.76;99906.59;4905177;29;20063;-68
2022/08/16 05:13:09;;;;;;;16.55;6.80;;;;;;;23.55;94.92;99900.66;4908281;29;20123;-68
2022/08/16 05:15:35;;;;;;;14.48;7.03;;;;;;;23.53;95.61;99903.13;4902638;29;20597;-69
2022/08/16 05:18:02;;;;;;;14.68;7.00;;;;;;;23.65;95.06;99896.69;4905719;29;20067;-69
2022/08/16 05:20:31;;;;;;;13.20;6.75;;;;;;;23.71;94.73;99905.84;4910359;29;20477;-70
2022/08/16 05:22:57;;;;;;;12.48;6.45;;;;;;;23.72;94.71;99902.63;4911611;29;20055;-68
2022/08/16 05:25:23;;;;;;;11.20;5.95;;;;;;;23.64;94.91;99906.91;4906378;29;20044;-68
2022/08/16 05:27:51;;;;;;;13.38;6.32;;;;;;;23.53;95.34;99905.88;4920490;29;20042;-68
2022/08/16 05:30:19;;;;;;;15.10;6.97;;;;;;;23.71;94.79;99916.84;4903837;29;20058;-69
2022/08/16 05:32:45;;;;;;;13.43;6.60;;;;;;;23.71;94.33;99911.34;4922055;29;20027;-69
2022/08/16 05:35:13;;;;;;;13.55;6.75;;;;;;;23.81;93.88;99923.84;4960799;28;20129;-68
2022/08/16 05:37:57;;;;;;;16.20;7.15;;;;;;;23.59;93.81;99920.53;4999358;28;20685;-68
2022/08/16 05:40:23;;;;;;;14.05;7.47;;;;;;;23.52;94.93;99940.84;5017380;28;20033;-68
2022/08/16 05:42:48;;;;;;;12.55;6.57;;;;;;;23.65;94.94;99932.44;5008718;28;20046;-68
2022/08/16 05:45:14;;;;;;;17.15;7.07;;;;;;;23.60;94.48;99933.03;5004638;28;20104;-68
2022/08/16 05:47:40;;;;;;;13.63;6.43;;;;;;;23.61;94.49;99931.81;4989522;28;20039;-67
2022/08/16 05:50:07;;;;;;;13.23;7.32;;;;;;;23.46;95.26;99937.19;4991478;28;20038;-68
2022/08/16 05:52:33;;;;;;;17.45;8.02;;;;;;;23.48;95.53;99953.25;5013403;28;20034;-68
2022/08/16 05:55:00;;;;;;;14.98;7.63;;;;;;;23.68;95.01;99954.28;5011385;28;20120;-68
2022/08/16 05:57:26;;;;;;;15.50;7.68;;;;;;;23.67;94.14;99957.50;5012543;28;20165;-70
2022/08/16 05:59:52;;;;;;;13.77;7.45;;;;;;;23.52;94.74;99956.59;5008077;28;20477;-68
2022/08/16 06:02:18;;;;;;;13.30;6.85;;;;;;;23.55;95.26;99953.69;4993787;28;20042;-67
2022/08/16 06:04:44;;;;;;;14.23;7.80;;;;;;;23.59;95.01;99964.53;4993439;28;20057;-67
2022/08/16 06:07:13;;;;;;;15.90;7.32;;;;;;;23.68;95.35;99965.28;4993532;28;20045;-67
2022/08/16 06:09:43;;;;;;;15.27;7.55;;;;;;;23.78;94.87;99971.53;5003427;28;20038;-69
2022/08/16 06:12:10;;;;;;;14.93;7.93;;;;;;;23.91;94.66;99983.88;5009881;28;20038;-70
2022/08/16 06:14:36;;;;;;;18.98;8.48;;;;;;;23.87;93.58;99969.50;5011466;28;20406;-68
2022/08/16 06:17:01;;;;;;;17.65;7.90;;;;;;;24.10;93.80;99976.34;5010694;28;20325;-69
2022/08/16 06:19:27;;;;;;;18.48;8.15;;;;;;;24.29;93.17;99979.81;5010621;28;20084;-68
2022/08/16 06:22:00;;;;;;;16.45;7.70;;;;;;;24.39;92.70;99976.56;5009273;28;20401;-68
2022/08/16 06:24:25;;;;;;;15.93;7.60;;;;;;;24.50;92.20;99976.06;5006645;28;20041;-69
2022/08/16 06:26:51;;;;;;;14.57;7.95;;;;;;;24.71;90.67;99970.28;5006915;28;20112;-68
2022/08/16 06:29:16;;;;;;;17.45;7.30;;;;;;;24.75;91.59;99970.16;5006836;28;20349;-68
2022/08/16 06:31:44;;;;;;;15.52;7.07;;;;;;;25.22;89.27;99972.91;5009731;28;20076;-68
2022/08/16 06:34:10;;;;;;;16.67;7.03;;;;;;;25.43;86.24;99971.84;4995432;28;20034;-68
2022/08/16 06:36:36;;;;;;;15.25;6.97;;;;;;;25.74;85.87;99982.44;5011657;28;20076;-68
2022/08/16 06:39:30;;;;;;;16.35;6.57;;;;;;;25.93;84.67;99981.00;4995139;28;20041;-68
2022/08/16 06:42:00;;;;;;;11.73;6.63;;;;;;;25.92;82.98;99988.53;4988224;28;20033;-67
2022/08/16 06:44:45;;;;;;;11.80;5.95;;;;;;;26.17;83.40;99991.97;5009175;28;20067;-68
2022/08/16 06:47:25;;;;;;;11.40;5.85;;;;;;;26.44;81.58;99991.66;5009410;28;20091;-68
2022/08/16 06:49:51;;;;;;;8.82;4.95;;;;;;;26.42;80.68;99992.13;5011792;28;20160;-67
2022/08/16 06:52:17;;;;;;;9.65;5.15;;;;;;;26.67;80.62;99999.78;5005758;28;20025;-68
2022/08/16 06:54:44;;;;;;;9.00;4.90;;;;;;;26.92;79.20;99995.66;5009462;28;20034;-67
2022/08/16 06:57:10;;;;;;;9.13;4.97;;;;;;;26.92;77.97;99994.88;5010753;28;20033;-68
2022/08/16 06:59:37;;;;;;;8.45;4.47;;;;;;;27.02;77.42;99996.28;5012309;28;20038;-67
2022/08/16 07:02:03;;;;;;;9.18;4.90;;;;;;;27.16;77.28;99992.69;5008700;28;20061;-68
2022/08/16 07:04:28;;;;;;;10.05;4.55;;;;;;;27.38;76.78;99995.72;5010639;28;20387;-67
2022/08/16 07:06:54;;;;;;;11.75;5.00;;;;;;;27.47;74.92;99996.34;5003143;28;20033;-68
2022/08/16 07:09:20;;;;;;;8.57;4.07;;;;;;;27.54;76.34;99995.94;4990638;28;20383;-68
2022/08/16 07:11:46;;;;;;;7.75;4.20;;;;;;;27.72;74.97;99997.59;5005433;28;20026;-67
2022/08/16 07:14:13;;;;;;;8.10;4.13;;;;;;;27.94;74.94;100000.63;5007444;28;20037;-68
2022/08/16 07:16:48;;;;;;;8.30;4.63;;;;;;;28.17;73.66;100004.34;5006670;28;20041;-67
2022/08/16 07:19:15;;;;;;;9.95;4.03;;;;;;;28.37;73.96;100007.81;5009045;28;20151;-67
2022/08/16 07:21:42;;;;;;;7.22;4.35;;;;;;;28.50;72.24;99997.06;5009240;28;20048;-67
2022/08/16 07:24:09;;;;;;;6.20;3.58;;;;;;;28.63;71.94;100001.44;5011340;28;20461;-69
2022/08/16 07:26:38;;;;;;;6.47;3.60;;;;;;;28.75;70.89;100011.34;5000944;28;20065;-69
2022/08/16 07:29:03;;;;;;;5.50;3.10;;;;;;;28.82;70.51;100010.91;5013577;28;20534;-69
2022/08/16 07:31:29;;;;;;;5.60;3.03;;;;;;;28.96;70.29;100015.50;5005394;28;20037;-71
2022/08/16 07:33:55;;;;;;;4.93;3.13;;;;;;;29.10;68.65;100011.78;5009300;28;20041;-70
2022/08/16 07:36:28;;;;;;;5.13;3.20;;;;;;;29.15;67.56;100017.38;4992057;28;20030;-67
2022/08/16 07:38:53;;;;;;;6.50;3.50;;;;;;;29.24;66.86;100033.06;4998002;28;20505;-68
2022/08/16 07:41:20;;;;;;;4.85;2.92;;;;;;;29.31;66.73;100019.47;5008736;28;20025;-67
2022/08/16 07:43:51;;;;;;;;;;;;;;;29.41;66.01;100031.13;5007470;28;20041;-69
2022/08/16 07:46:17;;;;;;;5.05;3.45;;;;;;;29.44;64.18;100026.59;4998650;28;19929;-69
2022/08/16 07:48:43;;;;;;;5.30;2.65;;;;;;;29.50;64.67;100038.47;5002337;28;20040;-67
2022/08/16 07:51:09;;;;;;;5.22;2.83;;;;;;;29.42;65.18;100040.97;4998382;28;20039;-68
2022/08/16 07:53:38;;;;;;;7.22;3.03;;;;;;;29.37;65.26;100038.91;5005109;28;20026;-68
2022/08/16 07:56:05;;;;;;;4.75;2.78;;;;;;;29.31;65.36;100040.91;5007769;28;20040;-68
2022/08/16 07:58:37;;;;;;;4.65;2.83;;;;;;;29.02;67.08;100044.78;5005629;28;20044;-67
2022/08/16 08:01:12;;;;;;;5.70;2.58;;;;;;;28.85;67.08;100041.16;5005092;28;20021;-68
2022/08/16 08:03:46;;;;;;;4.82;2.75;;;;;;;28.69;68.17;100049.38;5008046;28;20033;-68
2022/08/16 08:06:12;;;;;;;6.65;3.33;;;;;;;28.56;68.35;100049.03;5008527;28;20037;-67
2022/08/16 08:08:39;;;;;;;4.82;2.92;;;;;;;28.49;69.71;100053.00;5007695;28;20060;-69
2022/08/16 08:11:08;;;;;;;4.60;3.00;;;;;;;28.47;69.79;100056.22;5007423;28;20447;-70
2022/08/16 08:13:34;;;;;;;4.40;2.80;;;;;;;28.50;69.36;100051.72;5008697;28;20037;-70
2022/08/16 08:16:00;;;;;;;8.20;3.50;;;;;;;28.59;68.71;100053.59;5010025;28;20787;-69
2022/08/16 08:18:25;;;;;;;9.15;3.92;;;;;;;28.78;67.17;100049.94;5004728;28;20293;-70
2022/08/16 08:20:51;;;;;;;6.18;3.05;;;;;;;29.08;67.52;100051.13;5008483;28;20080;-68
2022/08/16 08:23:17;;;;;;;3.92;2.92;;;;;;;29.36;67.01;100054.81;4992095;28;20030;-68
2022/08/16 08:25:47;;;;;;;4.28;2.70;;;;;;;29.73;66.01;100063.06;5008694;28;20101;-67
2022/08/16 08:28:14;;;;;;;6.57;3.38;;;;;;;29.67;65.28;100069.81;5008199;28;20040;-68
2022/08/16 08:30:42;;;;;;;6.00;3.45;;;;;;;29.74;63.36;100072.91;5007598;28;20033;-68
2022/08/16 08:33:08;;;;;;;5.75;3.13;;;;;;;29.44;64.07;100073.78;5006127;28;20033;-69
2022/08/16 08:35:39;;;;;;;3.60;2.53;;;;;;;29.34;65.17;100074.00;5007029;28;20042;-67
2022/08/16 08:38:07;;;;;;;5.68;3.00;;;;;;;29.04;67.00;100074.81;5005070;28;20038;-67
2022/08/16 08:40:34;;;;;;;4.53;2.70;;;;;;;28.99;66.32;100076.31;5006400;28;20498;-68
2022/08/16 08:43:00;;;;;;;5.55;3.00;;;;;;;28.94;67.72;100084.59;5000922;28;20054;-68
2022/08/16 08:45:27;;;;;;;5.22;3.42;;;;;;;28.98;66.39;100090.66;5005244;28;20454;-68
2022/08/16 08:47:55;;;;;;;4.18;2.85;;;;;;;29.53;66.51;100090.97;5002664;28;20030;-70
2022/08/16 08:50:23;;;;;;;7.97;2.83;;;;;;;29.91;64.22;100095.16;5014272;28;20041;-69
2022/08/16 08:52:50;;;;;;;4.18;2.53;;;;;;;29.92;63.36;100085.59;5002645;28;20084;-67
2022/08/16 08:55:16;;;;;;;5.88;2.92;;;;;;;30.15;61.64;100085.13;5001003;28;20064;-69
2022/08/16 08:57:46;;;;;;;5.25;2.75;;;;;;;30.12;62.16;100091.69;4999273;28;20093;-69
2022/08/16 09:00:27;;;;;;;4.40;2.80;;;;;;;30.25;60.89;100093.97;4993614;28;20022;-68
2022/08/16 09:02:55;;;;;;;4.97;2.58;;;;;;;30.52;60.91;100089.72;5007745;28;20398;-68
2022/08/16 09:05:23;;;;;;;6.47;3.10;;;;;;;30.80;59.41;100096.00;5009187;28;20034;-68
2022/08/16 09:07:51;;;;;;;5.65;3.13;;;;;;;30.68;58.07;100102.88;5008207;28;20018;-68
2022/08/16 09:10:16;;;;;;;3.00;2.30;;;;;;;30.92;58.45;100103.88;4991700;28;20034;-69
2022/08/16 09:12:43;;;;;;;4.13;2.60;;;;;;;31.01;58.16;100097.31;5006715;28;20367;-68
2022/08/16 09:15:14;;;;;;;3.95;2.70;;;;;;;31.26;57.68;100107.38;5010127;28;20032;-71
2022/08/16 09:17:43;;;;;;;4.55;2.83;;;;;;;31.51;56.30;100097.94;4998531;28;20033;-68
2022/08/16 09:20:13;;;;;;;4.72;2.53;;;;;;;31.70;55.18;100107.22;5002229;28;20057;-67
2022/08/16 09:22:40;;;;;;;6.03;3.13;;;;;;;31.91;54.38;100107.63;4997414;28;20071;-68
2022/08/16 09:25:07;;;;;;;6.55;2.50;;;;;;;31.77;54.72;100105.91;4998461;28;20172;-68
2022/08/16 09:27:33;;;;;;;5.53;2.63;;;;;;;31.86;54.90;100103.56;4995964;28;20041;-69
2022/08/16 09:29:59;;;;;;;3.90;2.40;;;;;;;32.14;54.65;100095.09;5009834;28;20030;-70
2022/08/16 09:32:24;;;;;;;3.60;2.30;;;;;;;32.31;54.16;100100.56;5009492;28;20033;-68
2022/08/16 09:34:50;;;;;;;3.90;2.63;;;;;;;32.42;52.96;100104.03;4998561;28;20439;-70
2022/08/16 09:37:15;;;;;;;5.10;2.97;;;;;;;32.62;52.48;100102.84;4998874;28;20494;-69
2022/08/16 09:39:43;;;;;;;4.68;2.58;;;;;;;32.44;50.86;100103.53;5008364;28;20044;-68
2022/08/16 09:42:09;;;;;;;4.07;3.08;;;;;;;31.87;51.86;100105.09;5009596;28;20398;-68
2022/08/16 09:44:35;;;;;;;3.00;2.22;;;;;;;32.25;53.07;100116.56;5000799;28;20083;-68
2022/08/16 09:47:01;;;;;;;3.42;2.42;;;;;;;32.26;52.02;100118.06;5008706;28;20453;-68
2022/08/16 09:49:26;;;;;;;3.65;2.28;;;;;;;32.38;51.79;100114.69;5009541;28;20117;-68
2022/08/16 09:51:54;;;;;;;4.25;2.33;;;;;;;32.71;50.84;100113.69;5004854;28;20050;-69
2022/08/16 09:54:22;;;;;;;4.25;2.45;;;;;;;32.99;49.94;100122.59;4998769;28;20033;-69
2022/08/16 09:56:48;;;;;;;4.03;2.50;;;;;;;33.10;50.40;100118.94;5008957;28;20479;-68
2022/08/16 09:59:14;;;;;;;3.88;2.40;;;;;;;33.07;50.18;100117.19;4994662;28;20049;-68
2022/08/16 10:01:43;;;;;;;4.93;2.50;;;;;;;33.24;49.93;100118.50;5009450;28;20478;-70
2022/08/16 10:04:09;;;;;;;3.95;2.03;;;;;;;33.43;49.07;100124.16;5009437;28;20159;-67
2022/08/16 10:06:36;;;;;;;3.28;2.40;;;;;;;33.30;48.30;100121.25;5007746;28;20045;-68
2022/08/16 10:09:04;;;;;;;3.40;2.50;;;;;;;33.39;48.63;100124.44;4990667;28;20046;-68
2022/08/16 10:14:14;;;;;;;3.13;2.40;;;;;;;33.69;48.83;100125.13;5011143;28;20092;-69
2022/08/16 10:16:39;;;;;;;3.35;2.35;;;;;;;33.72;48.25;100126.13;5009692;28;20038;-69
2022/08/16 10:19:05;;;;;;;4.18;2.75;;;;;;;33.95;47.96;100123.78;5010880;28;20156;-69
2022/08/16 10:21:31;;;;;;;3.40;2.33;;;;;;;34.09;46.56;100117.00;4997694;28;20026;-68
2022/08/16 10:23:56;;;;;;;3.17;2.60;;;;;;;33.98;46.63;100117.13;4991465;28;20049;-69
2022/08/16 10:26:25;;;;;;;2.38;2.03;;;;;;;34.14;46.18;100119.72;4991239;28;20089;-69
2022/08/16 10:28:51;;;;;;;3.90;2.40;;;;;;;34.16;46.26;100121.97;4990700;28;20048;-69
2022/08/16 10:31:17;;;;;;;2.90;2.33;;;;;;;34.20;46.79;100108.44;5007107;28;20417;-69
2022/08/16 10:33:43;;;;;;;2.85;2.17;;;;;;;34.26;46.99;100121.03;5010397;28;20337;-69
2022/08/16 10:36:11;;;;;;;4.68;2.63;;;;;;;33.97;47.80;100129.59;5009295;28;20136;-69
2022/08/16 10:38:38;;;;;;;4.65;2.67;;;;;;;33.80;47.65;100126.28;5009088;28;20041;-69
2022/08/16 10:41:06;;;;;;;3.97;2.47;;;;;;;33.40;46.99;100122.41;5013960;28;20390;-69
2022/08/16 10:43:32;;;;;;;3.13;1.80;;;;;;;33.29;47.83;100105.78;5014083;28;20029;-69
2022/08/16 10:45:58;;;;;;;4.10;2.22;;;;;;;33.61;47.34;100118.63;5012953;28;20057;-69
2022/08/16 10:48:23;;;;;;;3.90;2.15;;;;;;;33.81;46.19;100122.19;5009094;28;20491;-69
2022/08/16 10:50:49;;;;;;;3.88;2.03;;;;;;;34.15;46.23;100123.25;5007044;28;20037;-69
2022/08/16 10:53:14;;;;;;;3.13;2.17;;;;;;;34.39;45.54;100132.31;5013688;28;20037;-69
2022/08/16 10:55:41;;;;;;;1.98;1.83;;;;;;;34.41;45.72;100134.56;5013878;28;20048;-69
2022/08/16 10:58:09;;;;;;;2.35;1.85;;;;;;;34.57;45.42;100130.78;5009283;28;20507;-69
2022/08/16 11:00:39;;;;;;;3.60;2.25;;;;;;;34.61;44.79;100122.81;4994380;28;20034;-69
2022/08/16 11:03:06;;;;;;;3.85;2.25;;;;;;;34.58;45.19;100143.47;4993240;28;20483;-69
2022/08/16 11:05:33;;;;;;;2.25;1.85;;;;;;;34.77;43.76;100138.56;4994315;28;20038;-69
2022/08/16 11:08:00;;;;;;;2.65;1.70;;;;;;;35.00;43.67;100131.31;5007546;28;20045;-69
2022/08/16 11:10:32;;;;;;;3.20;1.75;;;;;;;35.15;43.39;100128.72;5013241;28;20390;-69
2022/08/16 11:12:58;;;;;;;4.13;2.42;;;;;;;34.60;44.17;100140.91;5013502;28;20050;-69
2022/08/16 11:15:25;;;;;;;2.03;1.83;;;;;;;34.65;42.92;100134.44;5002896;28;20045;-69
2022/08/16 11:17:53;;;;;;;2.17;1.60;;;;;;;34.73;43.17;100140.94;5013387;28;20026;-69
2022/08/16 11:20:19;;;;;;;2.50;1.83;;;;;;;34.17;43.24;100135.41;5011747;28;20048;-69
2022/08/16 11:22:46;;;;;;;3.90;1.88;;;;;;;33.86;42.46;100140.91;5013456;28;20041;-69
2022/08/16 11:25:13;;;;;;;2.40;1.45;;;;;;;34.00;43.51;100142.53;5004919;28;20038;-68
2022/08/16 11:27:39;;;;;;;3.47;1.73;;;;;;;34.01;44.51;100144.78;5008663;28;20038;-69
2022/08/16 11:30:07;;;;;;;2.65;1.95;;;;;;;34.33;43.51;100147.66;4993226;28;20053;-69
2022/08/16 11:32:33;;;;;;;2.00;1.67;;;;;;;34.44;43.67;100144.69;5002455;28;20041;-69